Time;durP1;ratioP1;P1;durP2;ratioP2;P2;SDS_P1;SDS_P2;PMS_P1;PMS_P2;Temp;Humidity;BMP_temperature;BMP_pressure;BME280_temperature;BME280_humidity;BME280_pressure;Samples;Min_cycle;Max_cycle;Signal;HPM_P1;HPM_P2
2023/08/06 00:00:20;;;;;;;4.35;3.05;;;13.40;99.90;;;;;;8257240;28;20390;-84
2023/08/06 00:04:21;;;;;;;3.92;2.90;;;13.60;99.90;;;;;;8321857;28;20023;-83
2023/08/06 00:08:21;;;;;;;5.72;3.30;;;13.60;99.90;;;;;;8229255;28;20102;-84
2023/08/06 00:12:23;;;;;;;3.65;2.85;;;13.60;99.90;;;;;;8329807;28;20038;-83
2023/08/06 00:16:23;;;;;;;4.28;3.63;;;13.70;99.90;;;;;;8258897;28;20046;-84
2023/08/06 00:20:24;;;;;;;5.45;3.20;;;13.70;99.90;;;;;;8321378;28;20015;-83
2023/08/06 00:24:24;;;;;;;4.20;3.20;;;13.80;99.90;;;;;;8323984;28;20029;-84
2023/08/06 00:28:25;;;;;;;4.60;3.28;;;13.60;99.90;;;;;;8327838;28;20061;-83
2023/08/06 00:32:25;;;;;;;3.80;3.42;;;13.80;99.90;;;;;;8350254;28;20108;-83
2023/08/06 00:36:26;;;;;;;5.07;3.63;;;13.90;99.90;;;;;;8340896;28;20539;-83
2023/08/06 00:40:28;;;;;;;4.22;3.15;;;14.00;99.90;;;;;;8258621;28;20475;-85
2023/08/06 00:44:28;;;;;;;4.65;3.50;;;13.90;99.90;;;;;;8333174;28;20097;-83
2023/08/06 00:48:29;;;;;;;4.10;3.50;;;14.00;99.90;;;;;;8351546;28;20026;-83
2023/08/06 00:52:30;;;;;;;5.28;3.85;;;14.10;99.90;;;;;;8273182;28;20028;-84
2023/08/06 00:56:31;;;;;;;4.15;3.47;;;14.10;99.90;;;;;;8274803;28;20030;-85
2023/08/06 01:00:31;;;;;;;4.15;3.47;;;14.30;99.90;;;;;;8333063;28;20030;-84
2023/08/06 01:04:33;;;;;;;5.43;3.33;;;14.30;99.90;;;;;;8263352;28;20022;-83
2023/08/06 01:08:50;;;;;;;4.30;3.22;;;14.10;99.90;;;;;;8317283;28;20506;-84
2023/08/06 01:13:08;;;;;;;6.45;3.72;;;14.00;99.90;;;;;;8330943;28;20080;-85
2023/08/06 01:17:10;;;;;;;5.10;3.70;;;13.90;99.90;;;;;;8257804;28;20113;-84
2023/08/06 01:21:10;;;;;;;4.43;3.75;;;13.90;99.90;;;;;;8331417;28;20178;-83
2023/08/06 01:25:16;;;;;;;4.70;4.25;;;13.80;99.90;;;;;;8325526;28;20110;-83
2023/08/06 01:29:33;;;;;;;5.38;3.88;;;13.70;99.90;;;;;;8355463;28;20592;-83
2023/08/06 01:33:36;;;;;;;5.68;4.03;;;13.60;99.90;;;;;;8333085;28;20023;-83
2023/08/06 01:37:37;;;;;;;8.02;4.43;;;13.60;99.90;;;;;;8356265;28;20044;-83
2023/08/06 01:41:37;;;;;;;5.85;4.00;;;13.60;99.90;;;;;;8317129;28;20054;-83
2023/08/06 01:45:38;;;;;;;4.18;3.65;;;13.50;99.90;;;;;;8333132;28;20021;-83
2023/08/06 01:49:38;;;;;;;5.95;4.45;;;13.40;99.90;;;;;;8341703;28;20536;-84
2023/08/06 01:53:39;;;;;;;6.18;4.32;;;13.30;99.90;;;;;;8324410;28;20025;-84
2023/08/06 01:57:39;;;;;;;6.28;4.57;;;13.20;99.90;;;;;;8322687;28;20505;-84
2023/08/06 02:01:40;;;;;;;5.85;4.38;;;13.20;99.90;;;;;;8334566;28;20064;-83
2023/08/06 02:05:40;;;;;;;5.57;4.53;;;13.10;99.90;;;;;;8266052;28;20382;-83
2023/08/06 02:09:41;;;;;;;6.45;4.68;;;12.90;99.90;;;;;;8279817;28;20061;-83
2023/08/06 02:13:42;;;;;;;5.18;4.55;;;12.70;99.90;;;;;;8263687;28;20022;-83
2023/08/06 02:17:42;;;;;;;4.65;4.10;;;12.50;99.90;;;;;;8426521;22;20070;-80
2023/08/06 02:21:43;;;;;;;9.13;4.38;;;12.20;99.90;;;;;;8402408;28;20084;-79
2023/08/06 02:25:43;;;;;;;7.20;5.05;;;12.00;99.90;;;;;;8416541;28;20140;-80
2023/08/06 02:29:44;;;;;;;7.22;4.55;;;12.00;99.90;;;;;;8378451;28;20025;-79
2023/08/06 02:33:45;;;;;;;5.60;4.00;;;11.90;99.90;;;;;;8364260;28;20060;-80
2023/08/06 02:37:45;;;;;;;6.28;4.57;;;11.90;99.90;;;;;;8387242;28;20401;-80
2023/08/06 02:41:46;;;;;;;9.75;4.95;;;12.10;99.90;;;;;;8360090;28;20435;-80
2023/08/06 02:45:46;;;;;;;5.47;4.45;;;12.40;99.90;;;;;;8370264;28;20021;-79
2023/08/06 02:49:47;;;;;;;6.55;4.60;;;12.60;99.90;;;;;;8388958;28;20032;-79
2023/08/06 02:53:49;;;;;;;6.55;4.43;;;12.70;99.90;;;;;;8370900;28;20025;-80
2023/08/06 02:57:49;;;;;;;5.80;4.10;;;12.60;99.90;;;;;;8387765;28;20025;-80
2023/08/06 03:01:50;;;;;;;5.25;4.20;;;12.60;99.90;;;;;;8366569;28;20112;-80
2023/08/06 03:05:54;;;;;;;7.82;4.05;;;12.50;99.90;;;;;;8367995;28;20495;-78
2023/08/06 03:09:54;;;;;;;6.35;3.95;;;12.20;99.90;;;;;;8400114;28;20024;-80
2023/08/06 03:13:55;;;;;;;5.75;4.47;;;12.30;99.90;;;;;;8388462;28;20020;-80
2023/08/06 03:17:56;;;;;;;7.18;4.55;;;12.30;99.90;;;;;;8372739;28;20031;-79
2023/08/06 03:21:57;;;;;;;6.63;4.70;;;12.40;99.90;;;;;;8378326;28;20020;-80
2023/08/06 03:26:02;;;;;;;7.82;4.97;;;12.40;99.90;;;;;;8391095;28;20044;-81
2023/08/06 03:30:03;;;;;;;5.88;4.63;;;12.40;99.90;;;;;;8369395;28;20108;-80
2023/08/06 03:34:04;;;;;;;7.53;5.05;;;12.70;99.90;;;;;;8355050;28;20027;-77
2023/08/06 03:38:04;;;;;;;5.90;4.07;;;12.80;99.90;;;;;;8401967;28;20051;-80
2023/08/06 03:42:05;;;;;;;7.95;3.72;;;12.80;99.90;;;;;;8381225;28;20023;-80
2023/08/06 03:46:05;;;;;;;4.43;3.72;;;12.70;99.90;;;;;;8367331;28;20020;-80
2023/08/06 03:50:06;;;;;;;5.50;3.90;;;12.80;99.90;;;;;;8372149;28;20055;-81
2023/08/06 03:54:07;;;;;;;6.55;4.65;;;13.00;99.90;;;;;;8396202;28;20085;-79
2023/08/06 03:58:07;;;;;;;5.20;4.05;;;13.00;99.90;;;;;;8397767;28;20025;-80
2023/08/06 04:02:08;;;;;;;5.20;4.00;;;13.00;99.90;;;;;;8396165;28;20029;-79
2023/08/06 04:06:09;;;;;;;6.97;3.92;;;13.00;99.90;;;;;;8383947;28;20121;-80
2023/08/06 04:10:09;;;;;;;7.05;4.25;;;13.00;99.90;;;;;;8399208;28;20046;-80
2023/08/06 04:14:10;;;;;;;6.80;3.50;;;12.80;99.90;;;;;;8394227;28;20037;-78
2023/08/06 04:18:10;;;;;;;6.10;3.42;;;12.80;99.90;;;;;;8399850;28;20027;-80
2023/08/06 04:22:11;;;;;;;6.28;3.88;;;12.90;99.90;;;;;;8383438;28;20629;-80
2023/08/06 04:26:11;;;;;;;5.95;3.00;;;13.20;99.90;;;;;;8376552;28;20020;-80
2023/08/06 04:30:12;;;;;;;4.72;2.80;;;13.30;99.90;;;;;;8404400;28;20489;-80
2023/08/06 04:34:13;;;;;;;5.82;3.28;;;13.40;99.90;;;;;;8384447;28;20020;-80
2023/08/06 04:38:14;;;;;;;3.75;2.80;;;13.70;99.90;;;;;;8401765;28;20025;-79
2023/08/06 04:42:14;;;;;;;2.92;2.55;;;13.80;99.90;;;;;;8379762;28;20029;-80
2023/08/06 04:46:15;;;;;;;5.30;2.72;;;14.10;99.90;;;;;;8387404;28;20016;-80
2023/08/06 04:50:15;;;;;;;4.10;2.88;;;14.10;99.90;;;;;;8390024;28;20048;-81
2023/08/06 04:54:16;;;;;;;6.15;2.45;;;13.90;99.90;;;;;;8380093;28;20021;-80
2023/08/06 04:58:17;;;;;;;3.85;2.63;;;13.90;99.90;;;;;;8374187;28;20381;-81
2023/08/06 05:02:17;;;;;;;4.97;2.45;;;13.80;99.90;;;;;;8390971;28;20862;-80
2023/08/06 05:06:18;;;;;;;6.22;2.50;;;13.70;99.90;;;;;;8398292;28;20025;-80
2023/08/06 05:10:18;;;;;;;7.07;2.85;;;13.50;99.90;;;;;;8392774;28;20074;-81
2023/08/06 05:14:19;;;;;;;3.75;2.03;;;13.30;99.90;;;;;;8377171;28;20498;-79
2023/08/06 05:18:19;;;;;;;3.55;2.42;;;13.30;99.90;;;;;;8400331;28;20065;-80
2023/08/06 05:22:20;;;;;;;4.22;2.47;;;13.40;99.90;;;;;;8396601;28;20510;-79
2023/08/06 05:26:20;;;;;;;6.07;2.55;;;13.30;99.90;;;;;;8370350;28;20492;-80
2023/08/06 05:30:21;;;;;;;4.75;2.75;;;13.30;99.90;;;;;;8380590;28;20028;-78
2023/08/06 05:34:21;;;;;;;5.65;2.80;;;13.20;99.90;;;;;;8386349;28;20016;-81
2023/08/06 05:38:22;;;;;;;3.47;2.53;;;13.10;99.90;;;;;;8371510;28;20110;-79
2023/08/06 05:42:22;;;;;;;5.63;2.47;;;13.10;99.90;;;;;;8371893;28;20144;-80
2023/08/06 05:46:25;;;;;;;4.15;2.35;;;13.20;99.90;;;;;;8377621;28;20121;-80
2023/08/06 05:50:26;;;;;;;3.80;2.28;;;13.10;99.90;;;;;;8373188;28;21843;-80
2023/08/06 05:54:27;;;;;;;2.65;2.10;;;13.30;99.90;;;;;;8362097;28;20040;-80
2023/08/06 05:58:29;;;;;;;2.88;2.28;;;13.30;99.90;;;;;;8396373;28;20032;-80
2023/08/06 06:02:29;;;;;;;4.53;2.50;;;13.40;99.90;;;;;;8389386;28;20016;-80
2023/08/06 06:06:30;;;;;;;3.55;2.25;;;13.30;99.90;;;;;;8397202;28;20476;-80
2023/08/06 06:10:30;;;;;;;5.65;2.20;;;13.50;99.90;;;;;;8413733;28;20029;-80
2023/08/06 06:14:31;;;;;;;3.42;2.03;;;13.90;99.90;;;;;;8376925;28;20380;-80
2023/08/06 06:18:31;;;;;;;3.33;1.92;;;14.20;99.90;;;;;;8386675;28;20029;-79
2023/08/06 06:22:32;;;;;;;2.42;1.70;;;14.50;99.90;;;;;;8379360;28;20056;-79
2023/08/06 06:26:33;;;;;;;2.05;1.70;;;15.00;99.90;;;;;;8374032;28;20047;-81
2023/08/06 06:30:33;;;;;;;3.83;1.45;;;15.50;99.90;;;;;;8369985;28;20016;-81
2023/08/06 06:34:35;;;;;;;2.55;1.48;;;15.60;99.90;;;;;;8389323;28;20025;-80
2023/08/06 06:38:36;;;;;;;2.08;1.08;;;15.70;99.90;;;;;;8368698;28;20028;-81
2023/08/06 06:42:36;;;;;;;4.60;1.48;;;15.60;99.90;;;;;;8378219;28;20020;-79
2023/08/06 06:46:37;;;;;;;2.50;1.10;;;15.10;99.90;;;;;;8376958;28;20047;-81
2023/08/06 06:50:39;;;;;;;1.83;1.00;;;15.90;99.90;;;;;;8368528;28;20655;-81
2023/08/06 06:54:39;;;;;;;1.60;0.90;;;17.00;99.90;;;;;;8354668;28;20451;-81
2023/08/06 06:58:40;;;;;;;1.58;0.85;;;17.90;99.90;;;;;;8355212;28;20025;-80
2023/08/06 07:02:41;;;;;;;1.75;0.80;;;17.50;99.90;;;;;;8400814;28;20464;-81
2023/08/06 07:06:41;;;;;;;1.45;0.70;;;17.60;99.90;;;;;;8368363;28;20028;-80
2023/08/06 07:10:43;;;;;;;1.98;0.65;;;17.30;99.90;;;;;;8401826;28;20389;-80
2023/08/06 07:14:43;;;;;;;2.28;0.70;;;17.20;99.90;;;;;;8359466;28;20027;-79
2023/08/06 07:18:44;;;;;;;0.80;0.50;;;17.40;99.90;;;;;;8393697;28;20024;-80
2023/08/06 07:22:45;;;;;;;1.70;0.45;;;17.10;99.90;;;;;;8367049;28;20025;-81
2023/08/06 07:26:45;;;;;;;1.85;0.45;;;16.70;99.90;;;;;;8368885;28;20025;-83
2023/08/06 07:30:46;;;;;;;0.73;0.60;;;16.50;99.90;;;;;;8372248;28;20053;-80
2023/08/06 07:34:46;;;;;;;0.55;0.20;;;16.50;99.90;;;;;;8385963;28;20036;-79
2023/08/06 07:38:51;;;;;;;0.88;0.30;;;16.40;99.90;;;;;;8364637;28;20021;-81
2023/08/06 07:42:51;;;;;;;1.02;0.40;;;15.90;99.90;;;;;;8377107;28;20112;-80
2023/08/06 07:46:52;;;;;;;0.75;0.40;;;15.70;99.90;;;;;;8372248;28;20028;-80
2023/08/06 07:50:53;;;;;;;3.00;0.50;;;15.70;99.90;;;;;;8391740;28;20035;-80
2023/08/06 07:54:54;;;;;;;0.80;0.40;;;15.70;99.90;;;;;;8365942;28;20078;-81
2023/08/06 07:58:55;;;;;;;0.50;0.30;;;16.10;99.90;;;;;;8360869;28;20029;-79
2023/08/06 08:02:55;;;;;;;2.15;0.50;;;16.20;99.90;;;;;;8366104;28;20031;-81
2023/08/06 08:06:56;;;;;;;1.10;0.40;;;16.30;99.90;;;;;;8372008;28;20111;-81
2023/08/06 08:11:00;;;;;;;0.75;0.20;;;16.20;99.90;;;;;;8373884;28;20079;-80
2023/08/06 08:15:01;;;;;;;2.60;0.50;;;15.80;99.90;;;;;;8386427;28;20039;-80
2023/08/06 08:19:03;;;;;;;1.08;0.30;;;15.70;99.90;;;;;;8372248;28;20024;-81
2023/08/06 08:23:03;;;;;;;1.75;0.57;;;16.00;99.90;;;;;;8427240;22;20027;-80
2023/08/06 08:27:04;;;;;;;1.38;0.30;;;16.20;99.90;;;;;;8398417;28;20052;-82
2023/08/06 08:31:08;;;;;;;0.63;0.40;;;16.40;99.90;;;;;;8397318;28;20058;-81
2023/08/06 08:35:09;;;;;;;0.65;0.40;;;16.70;99.90;;;;;;8357641;28;20025;-80
2023/08/06 08:39:09;;;;;;;0.50;0.30;;;16.30;99.90;;;;;;8354194;28;20401;-81
2023/08/06 08:43:12;;;;;;;1.98;0.30;;;16.20;99.90;;;;;;8363594;28;20037;-81
2023/08/06 08:47:13;;;;;;;0.47;0.30;;;16.00;99.90;;;;;;8361087;28;20492;-80
2023/08/06 08:51:14;;;;;;;0.63;0.32;;;15.80;99.90;;;;;;8348126;28;20025;-81
2023/08/06 08:55:16;;;;;;;0.95;0.25;;;15.80;99.90;;;;;;8343727;28;20701;-81
2023/08/06 08:59:17;;;;;;;2.55;0.40;;;16.30;99.90;;;;;;8345628;28;20037;-81
2023/08/06 09:03:17;;;;;;;0.93;0.20;;;16.30;99.90;;;;;;8340754;28;20033;-81
2023/08/06 09:07:20;;;;;;;2.67;1.35;;;16.10;99.90;;;;;;8348375;28;20060;-82
2023/08/06 09:11:21;;;;;;;1.08;0.52;;;15.80;99.90;;;;;;8362434;28;20054;-80
2023/08/06 09:15:25;;;;;;;0.80;0.73;;;15.20;99.90;;;;;;8345519;28;20070;-81
2023/08/06 09:19:27;;;;;;;3.78;2.22;;;15.00;99.90;;;;;;8333379;28;20078;-80
2023/08/06 09:23:30;;;;;;;0.80;0.40;;;15.10;99.90;;;;;;8341879;28;20442;-80
2023/08/06 09:27:30;;;;;;;3.78;2.40;;;14.90;99.90;;;;;;8351223;28;20063;-79
2023/08/06 09:31:52;;;;;;;1.30;0.40;;;14.80;99.90;;;;;;8336791;28;20033;-82
2023/08/06 09:35:54;;;;;;;0.93;0.28;;;14.50;99.90;;;;;;8342302;28;20032;-81
2023/08/06 09:39:55;;;;;;;0.45;0.30;;;14.00;99.90;;;;;;8342431;28;20017;-82
2023/08/06 09:43:56;;;;;;;0.73;0.50;;;13.70;99.90;;;;;;8353451;28;20095;-81
2023/08/06 09:47:57;;;;;;;0.43;0.32;;;13.60;99.90;;;;;;8339371;28;20036;-81
2023/08/06 09:51:59;;;;;;;0.50;0.50;;;13.50;99.90;;;;;;8340895;28;20028;-78
2023/08/06 09:56:00;;;;;;;0.30;0.20;;;13.70;99.90;;;;;;8323546;28;20040;-80
2023/08/06 10:00:02;;;;;;;0.50;0.38;;;13.90;99.90;;;;;;8328903;28;20375;-78
2023/08/06 10:04:05;;;;;;;2.10;0.30;;;14.30;99.90;;;;;;8335991;28;20425;-78
2023/08/06 10:08:07;;;;;;;0.20;0.20;;;14.90;99.90;;;;;;8343568;28;20423;-80
2023/08/06 10:12:07;;;;;;;0.20;0.20;;;15.40;99.90;;;;;;8350083;28;20455;-80
2023/08/06 10:16:08;;;;;;;0.63;0.22;;;15.80;99.90;;;;;;8329769;28;20147;-80
2023/08/06 10:20:10;;;;;;;0.10;0.10;;;16.30;99.90;;;;;;8343019;28;20017;-79
2023/08/06 10:24:14;;;;;;;0.20;0.20;;;16.00;99.90;;;;;;8350358;28;20408;-79
2023/08/06 10:28:17;;;;;;;1.63;0.20;;;15.40;99.90;;;;;;8335168;28;20520;-79
2023/08/06 10:32:18;;;;;;;0.30;0.20;;;15.80;99.90;;;;;;8324988;28;20033;-81
2023/08/06 10:36:18;;;;;;;0.38;0.32;;;15.70;99.90;;;;;;8314522;28;20039;-81
2023/08/06 10:40:23;;;;;;;0.20;0.20;;;15.10;99.90;;;;;;8330261;28;20613;-79
2023/08/06 10:44:24;;;;;;;0.47;0.25;;;14.60;99.90;;;;;;8322911;28;20090;-80
2023/08/06 10:48:33;;;;;;;0.20;0.20;;;14.40;99.90;;;;;;8326256;28;20025;-78
2023/08/06 10:52:34;;;;;;;0.13;0.13;;;14.50;99.90;;;;;;8325418;28;20028;-80
2023/08/06 10:56:42;;;;;;;0.10;0.10;;;14.60;99.90;;;;;;8339207;28;20025;-79
2023/08/06 11:00:42;;;;;;;0.85;0.20;;;15.40;99.90;;;;;;8333639;28;20014;-80
2023/08/06 11:04:43;;;;;;;0.45;0.20;;;16.20;99.90;;;;;;8322921;28;20385;-79
2023/08/06 11:08:48;;;;;;;0.28;0.25;;;15.90;99.90;;;;;;8336719;28;20034;-81
2023/08/06 11:12:49;;;;;;;0.20;0.20;;;16.50;99.90;;;;;;8323604;28;20043;-80
2023/08/06 11:16:50;;;;;;;0.82;0.30;;;15.80;99.90;;;;;;8345273;28;20382;-81
2023/08/06 11:20:51;;;;;;;0.20;0.20;;;15.00;99.90;;;;;;8336962;28;20021;-83
2023/08/06 11:24:53;;;;;;;2.40;0.40;;;14.50;99.90;;;;;;8338895;28;20051;-84
2023/08/06 11:28:53;;;;;;;2.40;0.65;;;14.10;99.90;;;;;;8338632;28;20056;-82
2023/08/06 11:32:54;;;;;;;11.93;0.75;;;13.70;99.90;;;;;;8335201;28;20029;-81
2023/08/06 11:36:57;;;;;;;2.03;0.40;;;13.50;99.90;;;;;;8342132;28;20033;-85
2023/08/06 11:40:57;;;;;;;4.00;0.57;;;13.20;99.90;;;;;;8358672;28;20084;-84
2023/08/06 11:44:58;;;;;;;1.08;0.30;;;13.30;99.90;;;;;;8342359;28;20025;-85
2023/08/06 11:48:59;;;;;;;0.43;0.22;;;13.10;99.90;;;;;;8336551;28;20044;-84
2023/08/06 11:53:00;;;;;;;0.20;0.20;;;13.40;99.90;;;;;;8343982;28;20032;-85
2023/08/06 11:57:02;;;;;;;0.20;0.20;;;13.60;99.90;;;;;;8331975;28;20025;-83
2023/08/06 12:01:02;;;;;;;1.65;0.30;;;13.50;99.90;;;;;;8347673;28;20017;-85
2023/08/06 12:05:14;;;;;;;5.20;0.60;;;13.40;99.90;;;;;;8351951;28;20056;-84
2023/08/06 12:09:15;;;;;;;0.52;0.30;;;13.40;99.90;;;;;;8328655;28;20390;-84
2023/08/06 12:13:15;;;;;;;1.70;0.35;;;13.70;99.90;;;;;;8334140;28;20033;-85
2023/08/06 12:17:16;;;;;;;0.40;0.32;;;13.90;99.90;;;;;;8327962;28;20044;-85
2023/08/06 12:21:16;;;;;;;0.30;0.30;;;14.10;99.90;;;;;;8352343;28;20025;-84
2023/08/06 12:25:17;;;;;;;0.40;0.40;;;14.60;99.90;;;;;;8355754;28;20400;-85
2023/08/06 12:29:17;;;;;;;0.30;0.30;;;14.90;99.90;;;;;;8349898;28;20071;-85
2023/08/06 12:33:18;;;;;;;1.25;0.32;;;14.80;99.90;;;;;;8339407;28;20037;-87
2023/08/06 12:37:19;;;;;;;2.10;0.30;;;14.70;99.90;;;;;;8342509;28;20029;-87
2023/08/06 12:41:20;;;;;;;0.30;0.30;;;14.90;99.90;;;;;;8335116;28;21931;-87
2023/08/06 12:45:21;;;;;;;1.38;0.25;;;15.20;99.90;;;;;;8355179;28;20428;-88
2023/08/06 12:49:22;;;;;;;0.20;0.20;;;15.30;99.90;;;;;;8336382;28;20032;-87
2023/08/06 12:53:23;;;;;;;0.20;0.20;;;15.10;99.90;;;;;;8339420;28;20063;-87
2023/08/06 12:57:23;;;;;;;0.52;0.30;;;15.50;99.90;;;;;;8332646;28;20048;-89
2023/08/06 13:01:24;;;;;;;1.20;0.20;;;15.40;99.90;;;;;;8336402;28;20429;-89
2023/08/06 13:05:24;;;;;;;1.05;0.22;;;15.10;99.90;;;;;;8340483;28;20036;-85
2023/08/06 13:09:26;;;;;;;0.73;0.30;;;14.50;99.90;;;;;;8334601;28;20033;-86
2023/08/06 13:13:27;;;;;;;0.30;0.30;;;14.10;99.90;;;;;;8351461;28;20052;-90
2023/08/06 13:17:27;;;;;;;0.30;0.20;;;14.30;99.90;;;;;;8346690;28;20052;-90
2023/08/06 13:21:35;;;;;;;0.30;0.30;;;14.30;99.90;;;;;;8331016;28;20032;-87
2023/08/06 13:25:37;;;;;;;0.38;0.30;;;14.20;99.90;;;;;;8339424;28;20119;-86
2023/08/06 13:29:37;;;;;;;0.30;0.20;;;14.00;99.90;;;;;;8354075;28;20558;-86
2023/08/06 13:33:38;;;;;;;0.40;0.40;;;13.70;99.90;;;;;;8332112;28;20053;-87
2023/08/06 13:37:39;;;;;;;0.88;0.30;;;13.50;99.90;;;;;;8346690;28;20820;-85
2023/08/06 13:41:40;;;;;;;0.85;0.40;;;13.40;99.90;;;;;;8332331;28;20397;-87
2023/08/06 13:45:44;;;;;;;0.50;0.25;;;13.50;99.90;;;;;;8338100;28;20029;-87
2023/08/06 13:49:44;;;;;;;0.68;0.30;;;13.70;99.90;;;;;;8329427;28;20565;-87
2023/08/06 13:53:45;;;;;;;0.45;0.40;;;14.20;99.90;;;;;;8341363;28;20029;-87
2023/08/06 13:57:46;;;;;;;0.50;0.40;;;15.00;99.90;;;;;;8340402;28;20029;-86
2023/08/06 14:01:46;;;;;;;0.30;0.30;;;16.00;99.90;;;;;;8353312;28;20021;-86
2023/08/06 14:05:48;;;;;;;0.20;0.20;;;17.00;99.90;;;;;;8349196;28;20017;-87
2023/08/06 14:09:49;;;;;;;0.85;0.30;;;17.30;99.90;;;;;;8324124;28;20028;-87
2023/08/06 14:13:49;;;;;;;1.13;0.20;;;17.30;99.90;;;;;;8323615;28;20096;-89
2023/08/06 14:17:50;;;;;;;1.27;0.40;;;17.50;99.90;;;;;;8326593;28;20025;-89
2023/08/06 14:21:51;;;;;;;1.05;0.20;;;17.40;99.90;;;;;;8338691;28;20029;-88
2023/08/06 14:25:54;;;;;;;0.20;0.20;;;18.10;99.90;;;;;;8338801;28;20037;-89
2023/08/06 14:29:55;;;;;;;0.28;0.25;;;18.20;99.90;;;;;;8335177;28;20021;-90
2023/08/06 14:34:01;;;;;;;0.20;0.20;;;17.20;99.90;;;;;;8340901;28;20497;-90
2023/08/06 14:38:02;;;;;;;0.20;0.20;;;16.70;99.90;;;;;;8351097;28;20043;-89
2023/08/06 14:42:04;;;;;;;0.30;0.30;;;15.80;99.90;;;;;;8341829;28;20029;-89
2023/08/06 14:46:05;;;;;;;1.40;0.43;;;15.70;99.90;;;;;;8347382;28;20017;-85
2023/08/06 14:50:05;;;;;;;0.20;0.20;;;15.20;99.90;;;;;;8342182;28;20056;-88
2023/08/06 14:54:06;;;;;;;0.30;0.30;;;14.50;99.90;;;;;;8343901;28;20029;-89
2023/08/06 14:58:07;;;;;;;0.30;0.30;;;14.50;99.90;;;;;;8328793;28;20524;-89
2023/08/06 15:02:07;;;;;;;1.70;0.30;;;14.40;99.90;;;;;;8331959;28;20485;-90
2023/08/06 15:06:08;;;;;;;0.30;0.30;;;14.40;99.90;;;;;;8343133;28;20033;-88
2023/08/06 15:10:12;;;;;;;1.70;0.30;;;14.10;99.90;;;;;;8336265;28;20029;-88
2023/08/06 15:14:14;;;;;;;0.30;0.30;;;14.60;99.90;;;;;;8350439;28;20025;-88
2023/08/06 15:18:15;;;;;;;2.72;0.40;;;15.40;99.90;;;;;;8350872;28;20478;-89
2023/08/06 15:22:18;;;;;;;0.17;0.17;;;15.90;99.90;;;;;;8321033;28;20083;-88
2023/08/06 15:26:24;;;;;;;0.40;0.20;;;15.60;99.90;;;;;;8350537;28;20036;-90
2023/08/06 15:30:25;;;;;;;0.20;0.20;;;15.50;99.90;;;;;;8334930;28;20029;-88
2023/08/06 15:34:29;;;;;;;0.70;0.22;;;15.60;99.90;;;;;;8335879;28;20404;-88
2023/08/06 15:38:29;;;;;;;0.93;0.30;;;15.40;99.90;;;;;;8328555;28;20517;-88
2023/08/06 15:42:30;;;;;;;0.43;0.32;;;15.70;99.90;;;;;;8329753;28;20061;-86
2023/08/06 15:46:30;;;;;;;0.25;0.20;;;18.20;99.90;;;;;;8336639;28;20508;-87
2023/08/06 15:50:31;;;;;;;0.50;0.30;;;17.70;99.90;;;;;;8333399;28;20115;-87
2023/08/06 15:54:32;;;;;;;0.30;0.30;;;16.90;99.90;;;;;;8355110;28;20021;-86
2023/08/06 15:58:32;;;;;;;0.20;0.20;;;16.30;99.90;;;;;;8338310;28;20037;-86
2023/08/06 16:02:33;;;;;;;0.32;0.30;;;15.70;99.90;;;;;;8406056;22;20063;-83
2023/08/06 16:06:33;;;;;;;0.30;0.30;;;15.20;99.90;;;;;;8370657;28;20025;-84
2023/08/06 16:10:34;;;;;;;1.50;0.50;;;14.80;99.90;;;;;;8360287;28;20194;-84
2023/08/06 16:14:36;;;;;;;0.88;0.60;;;14.80;99.90;;;;;;8357147;28;20116;-84
2023/08/06 16:18:37;;;;;;;0.40;0.40;;;14.80;99.90;;;;;;8341804;28;20041;-89
2023/08/06 16:22:37;;;;;;;2.40;0.52;;;15.00;99.90;;;;;;8340211;28;20025;-87
2023/08/06 16:26:38;;;;;;;1.10;0.68;;;15.10;99.90;;;;;;8340700;28;20036;-89
2023/08/06 16:30:46;;;;;;;2.88;2.20;;;14.90;99.90;;;;;;8346887;28;20037;-88
2023/08/06 16:34:48;;;;;;;0.47;0.47;;;14.90;99.90;;;;;;8375429;28;20025;-86
2023/08/06 16:38:49;;;;;;;1.38;1.00;;;15.00;99.90;;;;;;8355103;28;20086;-87
2023/08/06 16:42:49;;;;;;;0.70;0.70;;;15.20;99.90;;;;;;8347674;28;20096;-83
2023/08/06 16:46:50;;;;;;;0.75;0.65;;;15.20;99.90;;;;;;8347105;28;20551;-83
2023/08/06 16:50:50;;;;;;;0.80;0.70;;;15.20;99.90;;;;;;8341067;28;20028;-83
2023/08/06 16:54:51;;;;;;;1.05;0.63;;;15.10;99.90;;;;;;8336062;28;20521;-83
2023/08/06 16:58:51;;;;;;;0.95;0.73;;;15.10;99.90;;;;;;8344282;28;20087;-83
2023/08/06 17:02:52;;;;;;;1.40;0.85;;;15.10;99.90;;;;;;8352950;28;20025;-83
2023/08/06 17:06:53;;;;;;;1.92;0.90;;;14.80;99.90;;;;;;8344236;28;20461;-82
2023/08/06 17:10:53;;;;;;;2.22;1.10;;;14.40;99.90;;;;;;8333343;28;20051;-83
2023/08/06 17:14:54;;;;;;;2.08;0.90;;;14.10;99.90;;;;;;8343558;28;20021;-81
2023/08/06 17:18:54;;;;;;;0.95;0.70;;;14.10;99.90;;;;;;8364231;28;20025;-82
2023/08/06 17:22:55;;;;;;;2.10;0.80;;;14.00;99.90;;;;;;8379100;28;20017;-81
2023/08/06 17:26:58;;;;;;;1.00;0.77;;;13.90;99.90;;;;;;8365992;28;20029;-82
2023/08/06 17:30:59;;;;;;;1.25;0.80;;;13.80;99.90;;;;;;8369097;28;20024;-82
2023/08/06 17:34:59;;;;;;;2.60;0.90;;;13.70;99.90;;;;;;8388536;28;20492;-82
2023/08/06 17:39:00;;;;;;;4.80;1.95;;;13.70;99.90;;;;;;8355570;28;20021;-81
2023/08/06 17:43:00;;;;;;;0.88;0.80;;;13.40;99.90;;;;;;8357528;28;20044;-81
2023/08/06 17:47:01;;;;;;;1.05;0.68;;;13.30;99.90;;;;;;8350113;28;20091;-81
2023/08/06 17:51:02;;;;;;;1.13;0.75;;;13.20;99.90;;;;;;8376230;28;20109;-82
2023/08/06 17:55:03;;;;;;;1.45;0.90;;;12.80;99.90;;;;;;8345145;28;20516;-82
2023/08/06 17:59:04;;;;;;;1.70;0.98;;;12.50;99.90;;;;;;8372593;28;20021;-82
2023/08/06 18:03:05;;;;;;;1.40;1.20;;;12.30;99.90;;;;;;8353578;28;20468;-82
2023/08/06 18:07:06;;;;;;;1.67;1.00;;;12.20;99.90;;;;;;8346028;28;20054;-81
2023/08/06 18:11:07;;;;;;;4.00;1.05;;;12.10;99.90;;;;;;8358596;28;20029;-83
2023/08/06 18:15:10;;;;;;;1.20;0.80;;;12.20;99.90;;;;;;8348375;28;20056;-83
2023/08/06 18:19:11;;;;;;;1.95;1.13;;;12.30;99.90;;;;;;8343434;28;20041;-82
2023/08/06 18:23:11;;;;;;;1.38;0.88;;;12.30;99.90;;;;;;8355680;28;20052;-83
2023/08/06 18:27:17;;;;;;;1.50;0.85;;;12.20;99.90;;;;;;8351461;28;20029;-83
2023/08/06 18:31:18;;;;;;;2.13;0.82;;;12.10;99.90;;;;;;8338311;28;20079;-83
2023/08/06 18:35:18;;;;;;;0.75;0.70;;;12.10;99.90;;;;;;8357782;28;20615;-82
2023/08/06 18:39:19;;;;;;;1.08;0.60;;;12.00;99.90;;;;;;8356913;28;20048;-82
2023/08/06 18:43:19;;;;;;;1.92;0.80;;;12.10;99.90;;;;;;8361724;28;20032;-82
2023/08/06 18:47:20;;;;;;;1.70;0.90;;;12.00;99.90;;;;;;8354093;28;20087;-82
2023/08/06 18:51:20;;;;;;;3.35;0.88;;;11.90;99.90;;;;;;8341963;28;20053;-81
2023/08/06 18:55:21;;;;;;;1.90;0.82;;;12.00;99.90;;;;;;8330804;28;20034;-82
2023/08/06 18:59:23;;;;;;;2.97;1.00;;;12.00;99.90;;;;;;8355214;28;20028;-82
2023/08/06 19:03:24;;;;;;;3.28;1.02;;;12.00;99.90;;;;;;8348366;28;20029;-81
2023/08/06 19:07:24;;;;;;;1.05;0.70;;;11.90;99.90;;;;;;8326415;28;20063;-82
2023/08/06 19:11:25;;;;;;;1.60;0.90;;;11.90;99.90;;;;;;8349528;28;20040;-80
2023/08/06 19:15:28;;;;;;;3.03;0.80;;;11.90;99.90;;;;;;8353707;28;20047;-81
2023/08/06 19:19:29;;;;;;;4.22;1.00;;;11.90;99.90;;;;;;8333029;28;20075;-81
2023/08/06 19:23:29;;;;;;;2.65;0.80;;;11.80;99.90;;;;;;8359545;28;20025;-80
2023/08/06 19:27:30;;;;;;;2.47;0.75;;;11.60;99.90;;;;;;8333957;28;20524;-81
2023/08/06 19:31:30;;;;;;;2.45;0.85;;;11.60;99.90;;;;;;8357651;28;20086;-80
2023/08/06 19:35:31;;;;;;;1.60;1.02;;;11.50;99.90;;;;;;8368206;28;20889;-80
2023/08/06 19:39:31;;;;;;;2.95;1.90;;;11.40;99.90;;;;;;8334541;28;20033;-81
2023/08/06 19:43:33;;;;;;;1.60;0.90;;;11.50;99.90;;;;;;8344255;28;20112;-81
2023/08/06 19:47:33;;;;;;;2.75;1.27;;;11.40;99.90;;;;;;8354529;28;20041;-80
2023/08/06 19:51:39;;;;;;;1.73;1.17;;;11.40;99.90;;;;;;8352734;28;20025;-80
2023/08/06 19:55:40;;;;;;;3.80;1.00;;;11.50;99.90;;;;;;8363335;28;20036;-82
2023/08/06 19:59:40;;;;;;;3.17;1.30;;;11.50;99.90;;;;;;8376643;28;20085;-82
2023/08/06 20:03:44;;;;;;;3.05;1.20;;;11.60;99.90;;;;;;8361796;28;20404;-82
2023/08/06 20:07:44;;;;;;;2.47;1.10;;;11.60;99.90;;;;;;8338241;28;20025;-82
2023/08/06 20:11:45;;;;;;;1.85;1.45;;;11.70;99.90;;;;;;8347832;28;20140;-82
2023/08/06 20:15:48;;;;;;;2.35;1.30;;;11.70;99.90;;;;;;8352544;28;20235;-82
2023/08/06 20:19:49;;;;;;;1.55;1.00;;;11.70;99.90;;;;;;8365184;28;20020;-80
2023/08/06 20:23:49;;;;;;;2.38;1.20;;;11.80;99.90;;;;;;8376093;28;20034;-82
2023/08/06 20:27:50;;;;;;;1.50;1.10;;;11.80;99.90;;;;;;8353635;28;20032;-82
2023/08/06 20:31:50;;;;;;;2.35;1.42;;;11.90;99.90;;;;;;8371489;28;20017;-82
2023/08/06 20:35:51;;;;;;;2.20;1.00;;;11.80;99.90;;;;;;8358440;28;20020;-81
2023/08/06 20:39:52;;;;;;;2.40;1.45;;;11.90;99.90;;;;;;8354702;28;20029;-81
2023/08/06 20:43:52;;;;;;;1.98;0.93;;;11.80;99.90;;;;;;8357034;28;20412;-82
2023/08/06 20:47:53;;;;;;;3.88;1.10;;;11.90;99.90;;;;;;8381095;28;20044;-82
2023/08/06 20:51:53;;;;;;;2.75;1.10;;;11.90;99.90;;;;;;8336140;28;20482;-81
2023/08/06 20:56:02;;;;;;;2.88;1.30;;;11.80;99.90;;;;;;8360275;28;20029;-81